SAS351 ESGG-EHAM
Flight info
| Callsign | SAS351 |
|---|---|
| Flight time | 1h 11m |
| Altitude | 38000 |
| Route | VADIN3J VADIN DCT ABINO DCT ATTUS DCT MOXCI P174 KUBAT T200 BLUFA BLUFA1A |
| Aircraft | A20N/M-SDE2E3FGHIRWXY/LB1 |
Departure
| Time | 2026-04-30 19:05 |
|---|---|
| Airport | Göteborg Landvetter Airport (ESGG) |
Arrival
| Time | 2026-04-30 20:16 |
|---|---|
| Airport | Amsterdam Airport Schiphol (EHAM) |
| Time | Latitude | Longitude | Altitude | Speed | Heading |
|---|---|---|---|---|---|
| 2026-04-30 18:42 | 57.66889 | 12.29412 | 509 ft | 0 kts | 117° |
| 2026-04-30 18:56 | 57.66895 | 12.29386 | 509 ft | 2 kts | 112° |
| 2026-04-30 18:57 | 57.66903 | 12.29326 | 509 ft | 2 kts | 87° |
| 2026-04-30 18:57 | 57.66900 | 12.29296 | 509 ft | 2 kts | 62° |
| 2026-04-30 18:57 | 57.66890 | 12.29272 | 509 ft | 2 kts | 35° |
| 2026-04-30 18:58 | 57.66880 | 12.29261 | 509 ft | 0 kts | 25° |
| 2026-04-30 19:00 | 57.66932 | 12.29309 | 509 ft | 6 kts | 25° |
| 2026-04-30 19:01 | 57.67013 | 12.29206 | 510 ft | 10 kts | 310° |
| 2026-04-30 19:01 | 57.67066 | 12.29206 | 510 ft | 8 kts | 26° |
| 2026-04-30 19:02 | 57.67171 | 12.29303 | 511 ft | 8 kts | 26° |
| 2026-04-30 19:02 | 57.67300 | 12.29420 | 513 ft | 12 kts | 26° |
| 2026-04-30 19:03 | 57.67422 | 12.29424 | 514 ft | 10 kts | 299° |
| 2026-04-30 19:03 | 57.67460 | 12.29214 | 513 ft | 9 kts | 268° |
| 2026-04-30 19:04 | 57.67406 | 12.28997 | 512 ft | 12 kts | 204° |
| 2026-04-30 19:04 | 57.66548 | 12.28217 | 505 ft | 123 kts | 206° |
| 2026-04-30 19:05 | 57.64764 | 12.26643 | 1163 ft | 145 kts | 206° |
| 2026-04-30 19:05 | 57.62947 | 12.25035 | 2213 ft | 148 kts | 211° |
| 2026-04-30 19:06 | 57.60825 | 12.22939 | 2696 ft | 197 kts | 211° |
| 2026-04-30 19:06 | 57.59461 | 12.21982 | 3063 ft | 224 kts | 197° |
| 2026-04-30 19:06 | 57.55981 | 12.21562 | 4108 ft | 271 kts | 182° |
| 2026-04-30 19:07 | 57.52153 | 12.21243 | 5985 ft | 279 kts | 185° |
| 2026-04-30 19:07 | 57.50200 | 12.20995 | 6923 ft | 284 kts | 184° |
| 2026-04-30 19:08 | 57.46204 | 12.20468 | 8660 ft | 293 kts | 184° |
| 2026-04-30 19:08 | 57.42416 | 12.17975 | 10471 ft | 297 kts | 224° |
| 2026-04-30 19:08 | 57.40928 | 12.15180 | 10964 ft | 315 kts | 227° |
| 2026-04-30 19:09 | 57.37729 | 12.09033 | 11732 ft | 351 kts | 226° |
| 2026-04-30 19:09 | 57.36010 | 12.05776 | 12528 ft | 356 kts | 226° |
| 2026-04-30 19:09 | 57.34259 | 12.02482 | 13309 ft | 361 kts | 226° |
| 2026-04-30 19:10 | 57.30519 | 11.96118 | 14784 ft | 370 kts | 213° |
| 2026-04-30 19:10 | 57.26172 | 11.90826 | 16174 ft | 378 kts | 218° |
| 2026-04-30 19:11 | 57.24058 | 11.87879 | 16854 ft | 382 kts | 218° |
| 2026-04-30 19:11 | 57.19795 | 11.81849 | 18235 ft | 389 kts | 219° |
| 2026-04-30 19:11 | 57.17651 | 11.78755 | 18870 ft | 394 kts | 219° |
| 2026-04-30 19:12 | 57.15486 | 11.75619 | 19462 ft | 397 kts | 220° |
| 2026-04-30 19:12 | 57.13308 | 11.72469 | 20046 ft | 400 kts | 220° |
| 2026-04-30 19:12 | 57.11133 | 11.69331 | 20624 ft | 404 kts | 220° |
| 2026-04-30 19:13 | 57.06660 | 11.62899 | 21750 ft | 411 kts | 219° |
| 2026-04-30 19:13 | 57.02108 | 11.56379 | 22883 ft | 418 kts | 219° |
| 2026-04-30 19:13 | 56.99802 | 11.53087 | 23410 ft | 422 kts | 219° |
| 2026-04-30 19:14 | 56.97462 | 11.49754 | 23967 ft | 426 kts | 219° |
| 2026-04-30 19:14 | 56.95112 | 11.46414 | 24436 ft | 429 kts | 219° |
| 2026-04-30 19:14 | 56.92748 | 11.43060 | 24925 ft | 431 kts | 219° |
| 2026-04-30 19:14 | 56.90367 | 11.39686 | 25372 ft | 434 kts | 219° |
| 2026-04-30 19:15 | 56.87971 | 11.36297 | 25825 ft | 437 kts | 219° |
| 2026-04-30 19:15 | 56.83121 | 11.29453 | 26695 ft | 442 kts | 219° |
| 2026-04-30 19:15 | 56.80674 | 11.26010 | 27120 ft | 445 kts | 219° |
| 2026-04-30 19:16 | 56.78215 | 11.22554 | 27535 ft | 448 kts | 219° |
| 2026-04-30 19:16 | 56.75736 | 11.19076 | 27932 ft | 450 kts | 219° |
| 2026-04-30 19:16 | 56.70735 | 11.12079 | 28687 ft | 456 kts | 219° |
| 2026-04-30 19:17 | 56.68210 | 11.08556 | 29061 ft | 458 kts | 219° |
| 2026-04-30 19:17 | 56.63127 | 11.01481 | 29761 ft | 463 kts | 219° |
| 2026-04-30 19:17 | 56.60592 | 10.97961 | 30111 ft | 465 kts | 219° |
| 2026-04-30 19:18 | 56.56264 | 10.91969 | 30663 ft | 469 kts | 219° |
| 2026-04-30 19:18 | 56.52817 | 10.87226 | 31091 ft | 471 kts | 219° |
| 2026-04-30 19:18 | 56.50199 | 10.83629 | 31410 ft | 472 kts | 219° |
| 2026-04-30 19:19 | 56.47576 | 10.80028 | 31764 ft | 473 kts | 219° |
| 2026-04-30 19:19 | 56.44959 | 10.76436 | 32173 ft | 472 kts | 219° |
| 2026-04-30 19:19 | 56.39743 | 10.69288 | 32991 ft | 469 kts | 219° |
| 2026-04-30 19:20 | 56.37144 | 10.65734 | 33380 ft | 468 kts | 219° |
| 2026-04-30 19:20 | 56.34550 | 10.62193 | 33768 ft | 467 kts | 219° |
| 2026-04-30 19:20 | 56.29487 | 10.55299 | 34489 ft | 465 kts | 219° |
| 2026-04-30 19:21 | 56.26947 | 10.51849 | 34797 ft | 463 kts | 219° |
| 2026-04-30 19:21 | 56.21804 | 10.44882 | 35373 ft | 461 kts | 218° |
| 2026-04-30 19:22 | 56.16682 | 10.37968 | 35935 ft | 459 kts | 218° |
| 2026-04-30 19:22 | 56.09028 | 10.27682 | 36691 ft | 457 kts | 218° |
| 2026-04-30 19:23 | 56.01417 | 10.17507 | 37406 ft | 454 kts | 218° |
| 2026-04-30 19:24 | 55.96356 | 10.10768 | 37852 ft | 453 kts | 218° |
| 2026-04-30 19:24 | 55.93829 | 10.07413 | 38059 ft | 452 kts | 218° |
| 2026-04-30 19:24 | 55.88785 | 10.00730 | 38443 ft | 451 kts | 218° |
| 2026-04-30 19:25 | 55.81238 | 9.90756 | 38448 ft | 449 kts | 218° |
| 2026-04-30 19:26 | 55.72085 | 9.78738 | 38448 ft | 450 kts | 218° |
| 2026-04-30 19:27 | 55.64522 | 9.68878 | 38454 ft | 449 kts | 218° |
| 2026-04-30 19:28 | 55.56968 | 9.59076 | 38453 ft | 449 kts | 217° |
| 2026-04-30 19:29 | 55.46932 | 9.46127 | 38454 ft | 449 kts | 217° |
| 2026-04-30 19:30 | 55.36823 | 9.33170 | 38461 ft | 449 kts | 217° |
| 2026-04-30 19:31 | 55.26696 | 9.20273 | 38453 ft | 449 kts | 217° |
| 2026-04-30 19:31 | 55.19106 | 9.10657 | 38454 ft | 449 kts | 217° |
| 2026-04-30 19:32 | 55.14043 | 9.04267 | 38453 ft | 449 kts | 217° |
| 2026-04-30 19:32 | 55.08943 | 8.97851 | 38454 ft | 448 kts | 217° |
| 2026-04-30 19:33 | 55.03891 | 8.91516 | 38449 ft | 448 kts | 217° |
| 2026-04-30 19:33 | 54.98821 | 8.85189 | 38445 ft | 448 kts | 217° |
| 2026-04-30 19:34 | 54.93783 | 8.78919 | 38449 ft | 448 kts | 217° |
| 2026-04-30 19:35 | 54.86166 | 8.69458 | 38450 ft | 448 kts | 217° |
| 2026-04-30 19:35 | 54.81090 | 8.63195 | 38453 ft | 448 kts | 217° |
| 2026-04-30 19:36 | 54.75998 | 8.56928 | 38456 ft | 448 kts | 217° |
| 2026-04-30 19:36 | 54.68363 | 8.47554 | 38452 ft | 448 kts | 217° |
| 2026-04-30 19:37 | 54.63275 | 8.41315 | 38453 ft | 448 kts | 217° |
| 2026-04-30 19:37 | 54.58177 | 8.35096 | 38449 ft | 448 kts | 217° |
| 2026-04-30 19:38 | 54.53104 | 8.28934 | 38450 ft | 449 kts | 216° |
| 2026-04-30 19:38 | 54.47999 | 8.22752 | 38449 ft | 449 kts | 216° |
| 2026-04-30 19:39 | 54.42892 | 8.16584 | 38453 ft | 449 kts | 216° |
| 2026-04-30 19:39 | 54.37841 | 8.10502 | 38446 ft | 449 kts | 216° |
| 2026-04-30 19:40 | 54.32722 | 8.04359 | 38452 ft | 449 kts | 216° |
| 2026-04-30 19:40 | 54.27601 | 7.98231 | 38451 ft | 449 kts | 216° |
| 2026-04-30 19:41 | 54.22499 | 7.92142 | 38093 ft | 444 kts | 216° |
| 2026-04-30 19:41 | 54.19956 | 7.89113 | 37475 ft | 444 kts | 216° |
| 2026-04-30 19:41 | 54.17421 | 7.86100 | 36784 ft | 445 kts | 216° |
| 2026-04-30 19:42 | 54.14913 | 7.83125 | 36235 ft | 444 kts | 216° |
| 2026-04-30 19:42 | 54.12338 | 7.80075 | 35833 ft | 447 kts | 216° |
| 2026-04-30 19:42 | 54.09797 | 7.77069 | 35561 ft | 452 kts | 216° |
| 2026-04-30 19:42 | 54.07206 | 7.74010 | 35307 ft | 453 kts | 216° |
| 2026-04-30 19:43 | 54.04608 | 7.70947 | 35064 ft | 453 kts | 216° |
| 2026-04-30 19:43 | 54.02020 | 7.67903 | 34819 ft | 453 kts | 216° |
| 2026-04-30 19:43 | 53.99421 | 7.64852 | 34571 ft | 454 kts | 216° |
| 2026-04-30 19:44 | 53.94212 | 7.58746 | 33967 ft | 456 kts | 215° |
| 2026-04-30 19:44 | 53.91594 | 7.55683 | 33661 ft | 456 kts | 215° |
| 2026-04-30 19:44 | 53.88976 | 7.52626 | 33362 ft | 457 kts | 215° |
| 2026-04-30 19:44 | 53.86358 | 7.49572 | 33066 ft | 458 kts | 215° |
| 2026-04-30 19:45 | 53.83731 | 7.46514 | 32775 ft | 459 kts | 215° |
| 2026-04-30 19:45 | 53.81101 | 7.43455 | 32483 ft | 460 kts | 215° |
| 2026-04-30 19:45 | 53.78459 | 7.40388 | 32196 ft | 461 kts | 215° |
| 2026-04-30 19:45 | 53.75817 | 7.37325 | 31913 ft | 461 kts | 215° |
| 2026-04-30 19:46 | 53.73169 | 7.34260 | 31634 ft | 461 kts | 215° |
| 2026-04-30 19:46 | 53.70518 | 7.31196 | 31356 ft | 462 kts | 215° |
| 2026-04-30 19:46 | 53.67859 | 7.28129 | 31080 ft | 463 kts | 215° |
| 2026-04-30 19:46 | 53.65274 | 7.25151 | 30823 ft | 462 kts | 214° |
| 2026-04-30 19:47 | 53.62622 | 7.22101 | 30561 ft | 459 kts | 214° |
| 2026-04-30 19:47 | 53.60876 | 7.20096 | 30364 ft | 458 kts | 214° |
| 2026-04-30 19:47 | 53.57400 | 7.16107 | 29952 ft | 455 kts | 214° |
| 2026-04-30 19:47 | 53.54749 | 7.13072 | 29632 ft | 453 kts | 214° |
| 2026-04-30 19:48 | 53.52148 | 7.10099 | 29331 ft | 451 kts | 214° |
| 2026-04-30 19:48 | 53.49558 | 7.07142 | 29028 ft | 449 kts | 214° |
| 2026-04-30 19:48 | 53.46981 | 7.04205 | 28726 ft | 446 kts | 214° |
| 2026-04-30 19:48 | 53.44426 | 7.01297 | 28431 ft | 444 kts | 213° |
| 2026-04-30 19:49 | 53.41873 | 6.98396 | 28138 ft | 441 kts | 213° |
| 2026-04-30 19:49 | 53.36813 | 6.92660 | 27538 ft | 437 kts | 213° |
| 2026-04-30 19:49 | 53.34328 | 6.89848 | 27268 ft | 435 kts | 213° |
| 2026-04-30 19:50 | 53.31870 | 6.87070 | 26985 ft | 433 kts | 213° |
| 2026-04-30 19:50 | 53.29383 | 6.84264 | 26682 ft | 431 kts | 213° |
| 2026-04-30 19:50 | 53.26904 | 6.81459 | 26424 ft | 429 kts | 214° |
| 2026-04-30 19:50 | 53.24649 | 6.78216 | 26196 ft | 428 kts | 224° |
| 2026-04-30 19:51 | 53.22540 | 6.74715 | 25947 ft | 427 kts | 224° |
| 2026-04-30 19:51 | 53.20441 | 6.71221 | 25699 ft | 425 kts | 224° |
| 2026-04-30 19:51 | 53.18352 | 6.67722 | 25457 ft | 424 kts | 224° |
| 2026-04-30 19:51 | 53.16286 | 6.64250 | 25217 ft | 422 kts | 224° |
| 2026-04-30 19:52 | 53.14220 | 6.60775 | 24977 ft | 420 kts | 224° |
| 2026-04-30 19:52 | 53.12164 | 6.57318 | 24742 ft | 419 kts | 224° |
| 2026-04-30 19:52 | 53.10119 | 6.53883 | 24511 ft | 417 kts | 224° |
| 2026-04-30 19:52 | 53.08075 | 6.50457 | 24277 ft | 416 kts | 224° |
| 2026-04-30 19:53 | 53.06040 | 6.47049 | 24045 ft | 414 kts | 224° |
| 2026-04-30 19:53 | 53.04010 | 6.43655 | 23789 ft | 413 kts | 223° |
| 2026-04-30 19:53 | 53.01991 | 6.40286 | 23512 ft | 411 kts | 223° |
| 2026-04-30 19:53 | 52.99969 | 6.36915 | 23233 ft | 410 kts | 223° |
| 2026-04-30 19:54 | 52.97959 | 6.33569 | 22818 ft | 410 kts | 223° |
| 2026-04-30 19:54 | 52.95974 | 6.30267 | 22290 ft | 408 kts | 223° |
| 2026-04-30 19:54 | 52.93974 | 6.26944 | 21747 ft | 404 kts | 223° |
| 2026-04-30 19:54 | 52.91993 | 6.23658 | 21219 ft | 400 kts | 223° |
| 2026-04-30 19:55 | 52.90039 | 6.20421 | 20690 ft | 396 kts | 222° |
| 2026-04-30 19:55 | 52.88101 | 6.17215 | 20164 ft | 392 kts | 222° |
| 2026-04-30 19:55 | 52.86175 | 6.14034 | 19644 ft | 389 kts | 222° |
| 2026-04-30 19:55 | 52.84262 | 6.10887 | 19120 ft | 386 kts | 222° |
| 2026-04-30 19:56 | 52.82364 | 6.07765 | 18595 ft | 384 kts | 221° |
| 2026-04-30 19:56 | 52.80479 | 6.04662 | 18040 ft | 381 kts | 221° |
| 2026-04-30 19:56 | 52.78611 | 6.01593 | 17538 ft | 377 kts | 221° |
| 2026-04-30 19:56 | 52.76764 | 5.98561 | 17034 ft | 373 kts | 221° |
| 2026-04-30 19:57 | 52.74930 | 5.95556 | 16533 ft | 370 kts | 221° |
| 2026-04-30 19:57 | 52.73113 | 5.92583 | 16034 ft | 366 kts | 221° |
| 2026-04-30 19:57 | 52.71309 | 5.89637 | 15533 ft | 364 kts | 221° |
| 2026-04-30 19:57 | 52.69520 | 5.86715 | 15047 ft | 361 kts | 221° |
| 2026-04-30 19:58 | 52.67770 | 5.83860 | 14733 ft | 353 kts | 221° |
| 2026-04-30 19:58 | 52.66054 | 5.81061 | 14606 ft | 340 kts | 220° |
| 2026-04-30 19:58 | 52.64404 | 5.78377 | 14489 ft | 327 kts | 220° |
| 2026-04-30 19:58 | 52.62810 | 5.75790 | 14278 ft | 319 kts | 220° |
| 2026-04-30 19:59 | 52.61142 | 5.73108 | 14046 ft | 352 kts | 220° |
| 2026-04-30 19:59 | 52.59351 | 5.70229 | 13791 ft | 362 kts | 220° |
| 2026-04-30 19:59 | 52.55830 | 5.64516 | 13434 ft | 345 kts | 220° |
| 2026-04-30 20:00 | 52.54155 | 5.61798 | 13311 ft | 332 kts | 220° |
| 2026-04-30 20:00 | 52.52542 | 5.59186 | 13183 ft | 319 kts | 220° |
| 2026-04-30 20:00 | 52.51050 | 5.56533 | 12877 ft | 316 kts | 228° |
| 2026-04-30 20:00 | 52.49863 | 5.53523 | 12647 ft | 311 kts | 235° |
| 2026-04-30 20:01 | 52.48273 | 5.46499 | 12234 ft | 361 kts | 253° |
| 2026-04-30 20:01 | 52.47706 | 5.42451 | 11989 ft | 363 kts | 255° |
| 2026-04-30 20:01 | 52.47165 | 5.38431 | 11740 ft | 359 kts | 255° |
| 2026-04-30 20:02 | 52.46089 | 5.30500 | 11259 ft | 357 kts | 255° |
| 2026-04-30 20:02 | 52.45550 | 5.26592 | 11015 ft | 355 kts | 254° |
| 2026-04-30 20:03 | 52.44476 | 5.18861 | 10708 ft | 339 kts | 254° |
| 2026-04-30 20:03 | 52.43961 | 5.15166 | 10605 ft | 326 kts | 254° |
| 2026-04-30 20:03 | 52.43464 | 5.11607 | 10476 ft | 314 kts | 254° |
| 2026-04-30 20:03 | 52.42981 | 5.08165 | 10167 ft | 308 kts | 254° |
| 2026-04-30 20:04 | 52.42505 | 5.04792 | 9981 ft | 299 kts | 253° |
| 2026-04-30 20:04 | 52.42031 | 5.01445 | 9862 ft | 303 kts | 253° |
| 2026-04-30 20:04 | 52.41554 | 4.98086 | 9724 ft | 302 kts | 253° |
| 2026-04-30 20:05 | 52.40606 | 4.91404 | 9463 ft | 301 kts | 253° |
| 2026-04-30 20:05 | 52.40131 | 4.88064 | 9335 ft | 301 kts | 253° |
| 2026-04-30 20:05 | 52.39182 | 4.81408 | 9081 ft | 299 kts | 253° |
| 2026-04-30 20:06 | 52.38868 | 4.79219 | 8994 ft | 299 kts | 253° |
| 2026-04-30 20:06 | 52.38393 | 4.75914 | 8868 ft | 298 kts | 253° |
| 2026-04-30 20:06 | 52.37919 | 4.72621 | 8742 ft | 298 kts | 253° |
| 2026-04-30 20:06 | 52.37443 | 4.69315 | 8613 ft | 297 kts | 253° |
| 2026-04-30 20:07 | 52.36973 | 4.66066 | 8449 ft | 297 kts | 253° |
| 2026-04-30 20:07 | 52.36495 | 4.62761 | 8093 ft | 298 kts | 253° |
| 2026-04-30 20:07 | 52.35543 | 4.56183 | 7360 ft | 296 kts | 252° |
| 2026-04-30 20:08 | 52.35069 | 4.52922 | 6992 ft | 294 kts | 252° |
| 2026-04-30 20:08 | 52.34596 | 4.49678 | 6621 ft | 292 kts | 252° |
| 2026-04-30 20:08 | 52.34125 | 4.46463 | 6257 ft | 290 kts | 252° |
| 2026-04-30 20:08 | 52.33656 | 4.43265 | 5900 ft | 288 kts | 252° |
| 2026-04-30 20:09 | 52.33010 | 4.40230 | 5547 ft | 278 kts | 233° |
| 2026-04-30 20:09 | 52.31720 | 4.38039 | 5200 ft | 263 kts | 206° |
| 2026-04-30 20:09 | 52.28313 | 4.36959 | 4575 ft | 244 kts | 180° |
| 2026-04-30 20:10 | 52.25106 | 4.36708 | 4378 ft | 218 kts | 168° |
| 2026-04-30 20:10 | 52.23752 | 4.37590 | 4168 ft | 208 kts | 141° |
| 2026-04-30 20:10 | 52.22848 | 4.39389 | 3869 ft | 208 kts | 115° |
| 2026-04-30 20:11 | 52.22314 | 4.44053 | 3264 ft | 209 kts | 102° |
| 2026-04-30 20:11 | 52.22098 | 4.46377 | 3054 ft | 204 kts | 102° |
| 2026-04-30 20:11 | 52.21887 | 4.48638 | 2831 ft | 200 kts | 102° |
| 2026-04-30 20:12 | 52.21562 | 4.53065 | 2464 ft | 195 kts | 91° |
| 2026-04-30 20:12 | 52.21863 | 4.55200 | 2372 ft | 191 kts | 75° |
| 2026-04-30 20:12 | 52.22444 | 4.57107 | 2265 ft | 184 kts | 68° |
| 2026-04-30 20:13 | 52.23107 | 4.58883 | 2109 ft | 185 kts | 65° |
| 2026-04-30 20:13 | 52.23785 | 4.60611 | 1912 ft | 173 kts | 66° |
| 2026-04-30 20:13 | 52.24403 | 4.62196 | 1665 ft | 158 kts | 66° |
| 2026-04-30 20:13 | 52.24966 | 4.63640 | 1455 ft | 144 kts | 66° |
| 2026-04-30 20:14 | 52.25477 | 4.64951 | 1278 ft | 131 kts | 66° |
| 2026-04-30 20:14 | 52.25950 | 4.66170 | 1110 ft | 122 kts | 66° |
| 2026-04-30 20:14 | 52.26412 | 4.67335 | 956 ft | 122 kts | 65° |
| 2026-04-30 20:14 | 52.26885 | 4.68491 | 760 ft | 124 kts | 65° |
| 2026-04-30 20:15 | 52.27345 | 4.69699 | 602 ft | 125 kts | 63° |
| 2026-04-30 20:15 | 52.27808 | 4.70867 | 432 ft | 122 kts | 62° |
| 2026-04-30 20:15 | 52.28264 | 4.72053 | 269 ft | 121 kts | 61° |
| 2026-04-30 20:15 | 52.28720 | 4.73222 | 111 ft | 125 kts | 62° |
| 2026-04-30 20:16 | 52.29172 | 4.74392 | 15 ft | 123 kts | 62° |
| 2026-04-30 20:16 | 52.29572 | 4.75443 | -4 ft | 85 kts | 58° |
| 2026-04-30 20:16 | 52.29819 | 4.75830 | -4 ft | 27 kts | 26° |
| 2026-04-30 20:16 | 52.29887 | 4.75890 | -3 ft | 0 kts | 32° |
| 2026-04-30 20:17 | 52.29898 | 4.75901 | -3 ft | 1 kts | 32° |
| 2026-04-30 20:17 | 52.29905 | 4.75908 | -3 ft | 0 kts | 31° |
| 2026-04-30 20:17 | 52.29910 | 4.75912 | -3 ft | 2 kts | 24° |
| 2026-04-30 20:17 | 52.29926 | 4.75914 | -3 ft | 4 kts | 359° |
| 2026-04-30 20:18 | 52.29943 | 4.75879 | -3 ft | 5 kts | 279° |
| 2026-04-30 20:18 | 52.29924 | 4.75813 | -3 ft | 8 kts | 240° |